Tuesday, May 24, 2016, 9:16 PM EDT

KMUI, Muir Army Air Field / Indiantown

Location: Jonestown, PA, United States Lat: 40.433
Local Time: 9:16 PM EDT ( 1:16 GMT) Lon: -76.567
Time Zone: US/Eastern Elev: 488 ft

Show me the last for .
Show Decoded

2016-05-24 20:58 METAR KMUI 250058Z AUTO 28006KT 10SM CLR 23/08 A2997 RMK AO2 SLP149 T02310082 $
                 =
2016-05-24 19:58 METAR KMUI 242358Z AUTO 25007KT 10SM CLR 25/08 A2995 RMK AO2 SLP142 60000
                 T02520082 10284 20252 52009 $ =
2016-05-24 18:58 METAR KMUI 242258Z AUTO 25009KT 10SM CLR 27/09 A2994 RMK AO2 SLP139 T02660085 $
                 =
2016-05-24 17:58 METAR KMUI 242158Z AUTO 26010KT 10SM SCT090 27/08 A2993 RMK AO2 SLP135 T02690076
                 $ =
2016-05-24 16:58 METAR KMUI 242058Z AUTO VRB06G17KT 10SM SCT095 28/07 A2993 RMK AO2 SLP135 60000
                 T02800069 55006 $ =
2016-05-24 15:58 METAR KMUI 241958Z AUTO 28011G16KT 10SM FEW100 27/07 A2992 RMK AO2 SLP132
                 T02740071 $ =
2016-05-24 14:58 METAR KMUI 241858Z AUTO 30007KT 270V330 10SM FEW110 27/06 A2993 RMK AO2 RAB29E34
                 SLP136 P0000 T02740059 $ =
2016-05-24 14:22 METAR KMUI 241822Z AUTO 29012G19KT 10SM CLR 27/06 A2994 RMK AO2 WSHFT 21 =
2016-05-24 13:58 METAR KMUI 241758Z AUTO 30007G18KT 10SM FEW080 SCT180 27/08 A2994 RMK AO2 SLP139
                 T02650079 10266 20184 58010 $ =
2016-05-24 12:58 METAR KMUI 241658Z AUTO 28002G17KT 10SM CLR 26/08 A2996 RMK AO2 SLP146 T02600079
                 $ =
2016-05-24 11:58 METAR KMUI 241558Z AUTO VRB05KT 10SM FEW190 25/09 A2998 RMK AO2 SLP153 T02460088
                 $ =
2016-05-24 10:58 METAR KMUI 241458Z AUTO 28007KT 10SM CLR 23/08 A2997 RMK AO2 SLP150 T02330083
                 51006 $ =
2016-05-24 09:58 METAR KMUI 241358Z AUTO VRB02KT 10SM CLR 22/09 A2997 RMK AO2 SLP150 T02200093 $
                 =
2016-05-24 08:58 METAR KMUI 241258Z AUTO 34006KT 10SM CLR 20/09 A2997 RMK AO2 SLP151 T02030087 $
                 =
2016-05-24 07:58 METAR KMUI 241158Z AUTO 33006KT 10SM CLR 18/08 A2995 RMK AO2 SLP144 70071
                 T01800083 10180 20126 52018 $ =
2016-05-24 06:58 METAR KMUI 241058Z AUTO 34008KT 10SM FEW160 16/09 A2993 RMK AO2 SLP137 T01630087
                 $ =
2016-05-24 05:58 METAR KMUI 240958Z AUTO VRB05KT 10SM BKN110 17/08 A2991 RMK AO2 SLP130 T01710081
                 $ =
2016-05-24 04:58 METAR KMUI 240858Z AUTO VRB04KT 10SM FEW110 SCT180 16/09 A2990 RMK AO2 SLP127
                 T01610089 50000 $ =
2016-05-24 03:58 METAR KMUI 240758Z AUTO 32008KT 10SM FEW130 16/10 A2990 RMK AO2 SLP127 T01570098
                 $ =
2016-05-24 02:58 METAR KMUI 240658Z AUTO VRB01KT 10SM CLR 14/12 A2990 RMK AO2 SLP128 T01360124 $
                 =
2016-05-24 01:58 METAR KMUI 240558Z AUTO 23004KT 10SM FEW150 13/13 A2990 RMK AO2 SLP126 60001
                 T01320132 10160 20129 57015 $ =
2016-05-24 00:58 METAR KMUI 240458Z AUTO 28004KT 10SM BKN085 OVC130 14/14 A2993 RMK AO2 SLP136
                 T01350135 402320116 $ =
2016-05-23 23:58 METAR KMUI 240358Z AUTO 32001KT 10SM OVC085 14/14 A2993 RMK AO2 RAE04 SLP136
                 P0000 T01390139 $ =
2016-05-23 23:04 METAR KMUI 240304Z AUTO 35002KT 10SM OVC090 13/13 A2994 RMK AO2 RAE04 =
2016-05-23 22:58 METAR KMUI 240258Z AUTO 34002KT 10SM -RA BKN085 OVC130 13/13 A2994 RMK AO2
                 RAB02E15DZB15E18RAB51 SLP140 P0001 60001 T01340134 52015 $ =
2016-05-23 22:51 METAR KMUI 240251Z AUTO 35002KT 10SM -RA BKN085 BKN130 13/13 A2995 RMK AO2
                 RAB02E15DZB15E18RAB51 =
2016-05-23 22:18 METAR KMUI 240218Z AUTO 20004KT 10SM SCT090 BKN120 14/14 A2994 RMK AO2
                 RAB02E15DZB15E18 =
2016-05-23 22:02 METAR KMUI 240202Z AUTO 23004KT 9SM RA BKN085 BKN110 15/15 A2993 RMK AO2 RAB02 =
2016-05-23 21:58 METAR KMUI 240158Z AUTO 26002KT 10SM BKN080 OVC095 14/14 A2993 RMK AO2 SLP137
                 T01440144 $ =

Support USWX by starting your Amazon purchase here.